sensor_id;sensor_type;location;lat;lon;timestamp;P1;durP1;ratioP1;P2;durP2;ratioP2
1649;SDS011;822;53.670;8.676;2022-10-30T00:01:10;4.77;;;4.47;;
1649;SDS011;822;53.670;8.676;2022-10-30T00:03:36;9.30;;;4.57;;
1649;SDS011;822;53.670;8.676;2022-10-30T00:06:05;5.77;;;5.17;;
1649;SDS011;822;53.670;8.676;2022-10-30T00:08:32;4.73;;;3.97;;
1649;SDS011;822;53.670;8.676;2022-10-30T00:11:03;4.57;;;4.17;;
1649;SDS011;822;53.670;8.676;2022-10-30T00:13:31;5.47;;;4.97;;
1649;SDS011;822;53.670;8.676;2022-10-30T00:15:58;4.43;;;4.03;;
1649;SDS011;822;53.670;8.676;2022-10-30T00:18:24;4.83;;;4.43;;
1649;SDS011;822;53.670;8.676;2022-10-30T00:20:51;4.57;;;4.10;;
1649;SDS011;822;53.670;8.676;2022-10-30T00:23:19;5.53;;;4.03;;
1649;SDS011;822;53.670;8.676;2022-10-30T00:25:46;5.33;;;4.17;;
1649;SDS011;822;53.670;8.676;2022-10-30T00:28:13;4.40;;;4.00;;
1649;SDS011;822;53.670;8.676;2022-10-30T00:30:40;3.87;;;3.57;;
1649;SDS011;822;53.670;8.676;2022-10-30T00:33:07;4.93;;;4.43;;
1649;SDS011;822;53.670;8.676;2022-10-30T00:35:33;3.67;;;3.37;;
1649;SDS011;822;53.670;8.676;2022-10-30T00:38:00;4.10;;;3.70;;
1649;SDS011;822;53.670;8.676;2022-10-30T00:40:28;5.33;;;4.90;;
1649;SDS011;822;53.670;8.676;2022-10-30T00:42:55;5.90;;;4.60;;
1649;SDS011;822;53.670;8.676;2022-10-30T00:45:22;6.30;;;4.87;;
1649;SDS011;822;53.670;8.676;2022-10-30T00:47:50;5.20;;;3.90;;
1649;SDS011;822;53.670;8.676;2022-10-30T00:50:18;4.33;;;3.83;;
1649;SDS011;822;53.670;8.676;2022-10-30T00:52:50;7.03;;;4.97;;
1649;SDS011;822;53.670;8.676;2022-10-30T00:55:24;5.43;;;4.90;;
1649;SDS011;822;53.670;8.676;2022-10-30T00:57:54;4.60;;;4.20;;
1649;SDS011;822;53.670;8.676;2022-10-30T01:00:21;4.40;;;4.00;;
1649;SDS011;822;53.670;8.676;2022-10-30T01:02:48;5.03;;;4.63;;
1649;SDS011;822;53.670;8.676;2022-10-30T01:05:16;7.13;;;4.67;;
1649;SDS011;822;53.670;8.676;2022-10-30T01:07:46;5.80;;;5.20;;
1649;SDS011;822;53.670;8.676;2022-10-30T01:10:12;6.93;;;4.67;;
1649;SDS011;822;53.670;8.676;2022-10-30T01:12:40;4.70;;;4.10;;
1649;SDS011;822;53.670;8.676;2022-10-30T01:15:09;4.23;;;3.83;;
1649;SDS011;822;53.670;8.676;2022-10-30T01:20:34;4.30;;;3.90;;
1649;SDS011;822;53.670;8.676;2022-10-30T01:23:12;4.30;;;3.50;;
1649;SDS011;822;53.670;8.676;2022-10-30T01:25:48;5.13;;;4.60;;
1649;SDS011;822;53.670;8.676;2022-10-30T01:28:25;5.80;;;3.93;;
1649;SDS011;822;53.670;8.676;2022-10-30T01:31:06;5.67;;;3.87;;
1649;SDS011;822;53.670;8.676;2022-10-30T01:33:44;4.10;;;3.80;;
1649;SDS011;822;53.670;8.676;2022-10-30T01:36:20;4.70;;;4.20;;
1649;SDS011;822;53.670;8.676;2022-10-30T01:38:50;6.60;;;4.60;;
1649;SDS011;822;53.670;8.676;2022-10-30T01:41:18;6.20;;;4.67;;
1649;SDS011;822;53.670;8.676;2022-10-30T01:43:45;4.10;;;3.80;;
1649;SDS011;822;53.670;8.676;2022-10-30T01:49:11;5.00;;;4.60;;
1649;SDS011;822;53.670;8.676;2022-10-30T01:51:50;4.83;;;4.33;;
1649;SDS011;822;53.670;8.676;2022-10-30T01:54:24;4.00;;;3.70;;
1649;SDS011;822;53.670;8.676;2022-10-30T01:56:58;4.83;;;4.43;;
1649;SDS011;822;53.670;8.676;2022-10-30T01:59:30;4.33;;;3.93;;
1649;SDS011;822;53.670;8.676;2022-10-30T02:02:00;4.83;;;4.33;;
1649;SDS011;822;53.670;8.676;2022-10-30T02:04:27;5.53;;;3.50;;
1649;SDS011;822;53.670;8.676;2022-10-30T02:06:55;6.40;;;4.80;;
1649;SDS011;822;53.670;8.676;2022-10-30T02:09:22;4.80;;;4.40;;
1649;SDS011;822;53.670;8.676;2022-10-30T02:11:49;5.20;;;4.33;;
1649;SDS011;822;53.670;8.676;2022-10-30T02:14:17;5.23;;;4.83;;
1649;SDS011;822;53.670;8.676;2022-10-30T02:16:49;3.70;;;3.40;;
1649;SDS011;822;53.670;8.676;2022-10-30T02:19:19;5.30;;;4.80;;
1649;SDS011;822;53.670;8.676;2022-10-30T02:21:47;5.40;;;4.90;;
1649;SDS011;822;53.670;8.676;2022-10-30T02:24:14;5.40;;;4.90;;
1649;SDS011;822;53.670;8.676;2022-10-30T02:26:41;4.27;;;3.87;;
1649;SDS011;822;53.670;8.676;2022-10-30T02:29:08;5.33;;;3.40;;
1649;SDS011;822;53.670;8.676;2022-10-30T02:31:35;5.47;;;4.97;;
1649;SDS011;822;53.670;8.676;2022-10-30T02:34:02;4.53;;;4.23;;
1649;SDS011;822;53.670;8.676;2022-10-30T02:36:29;4.67;;;4.37;;
1649;SDS011;822;53.670;8.676;2022-10-30T02:38:57;5.10;;;4.03;;
1649;SDS011;822;53.670;8.676;2022-10-30T02:41:27;4.50;;;4.10;;
1649;SDS011;822;53.670;8.676;2022-10-30T02:43:54;6.20;;;5.10;;
1649;SDS011;822;53.670;8.676;2022-10-30T02:46:21;7.50;;;4.43;;
1649;SDS011;822;53.670;8.676;2022-10-30T02:48:47;4.40;;;4.00;;
1649;SDS011;822;53.670;8.676;2022-10-30T02:51:14;3.90;;;3.60;;
1649;SDS011;822;53.670;8.676;2022-10-30T02:53:41;4.03;;;3.60;;
1649;SDS011;822;53.670;8.676;2022-10-30T02:56:10;4.50;;;4.10;;
1649;SDS011;822;53.670;8.676;2022-10-30T02:58:37;6.40;;;3.73;;
1649;SDS011;822;53.670;8.676;2022-10-30T03:01:05;4.87;;;4.17;;
1649;SDS011;822;53.670;8.676;2022-10-30T03:03:35;8.80;;;3.77;;
1649;SDS011;822;53.670;8.676;2022-10-30T03:06:03;5.60;;;4.10;;
1649;SDS011;822;53.670;8.676;2022-10-30T03:08:31;5.07;;;3.33;;
1649;SDS011;822;53.670;8.676;2022-10-30T03:10:59;9.30;;;4.13;;
1649;SDS011;822;53.670;8.676;2022-10-30T03:13:28;4.20;;;3.90;;
1649;SDS011;822;53.670;8.676;2022-10-30T03:16:00;3.33;;;3.13;;
1649;SDS011;822;53.670;8.676;2022-10-30T03:18:27;10.63;;;3.93;;
1649;SDS011;822;53.670;8.676;2022-10-30T03:20:57;3.43;;;3.20;;
1649;SDS011;822;53.670;8.676;2022-10-30T03:23:24;5.63;;;4.13;;
1649;SDS011;822;53.670;8.676;2022-10-30T03:25:52;4.60;;;4.20;;
1649;SDS011;822;53.670;8.676;2022-10-30T03:28:19;3.63;;;3.33;;
1649;SDS011;822;53.670;8.676;2022-10-30T03:30:48;5.87;;;4.70;;
1649;SDS011;822;53.670;8.676;2022-10-30T03:33:15;3.80;;;3.50;;
1649;SDS011;822;53.670;8.676;2022-10-30T03:35:42;4.60;;;4.20;;
1649;SDS011;822;53.670;8.676;2022-10-30T03:38:10;3.97;;;3.20;;
1649;SDS011;822;53.670;8.676;2022-10-30T03:40:37;3.10;;;2.90;;
1649;SDS011;822;53.670;8.676;2022-10-30T03:43:04;4.27;;;3.50;;
1649;SDS011;822;53.670;8.676;2022-10-30T03:45:31;3.60;;;3.30;;
1649;SDS011;822;53.670;8.676;2022-10-30T03:48:00;3.97;;;3.67;;
1649;SDS011;822;53.670;8.676;2022-10-30T03:50:28;3.43;;;3.23;;
1649;SDS011;822;53.670;8.676;2022-10-30T03:52:55;3.47;;;3.17;;
1649;SDS011;822;53.670;8.676;2022-10-30T03:55:23;3.47;;;3.17;;
1649;SDS011;822;53.670;8.676;2022-10-30T03:57:50;3.73;;;3.43;;
1649;SDS011;822;53.670;8.676;2022-10-30T04:00:18;3.73;;;3.43;;
1649;SDS011;822;53.670;8.676;2022-10-30T04:02:45;5.93;;;4.50;;
1649;SDS011;822;53.670;8.676;2022-10-30T04:05:14;4.20;;;3.90;;
1649;SDS011;822;53.670;8.676;2022-10-30T04:07:42;4.00;;;3.63;;
1649;SDS011;822;53.670;8.676;2022-10-30T04:10:09;3.13;;;2.93;;
1649;SDS011;822;53.670;8.676;2022-10-30T04:12:37;5.07;;;4.13;;
1649;SDS011;822;53.670;8.676;2022-10-30T04:15:04;4.67;;;3.73;;
1649;SDS011;822;53.670;8.676;2022-10-30T04:17:32;4.13;;;3.83;;
1649;SDS011;822;53.670;8.676;2022-10-30T04:19:59;3.17;;;2.97;;
1649;SDS011;822;53.670;8.676;2022-10-30T04:22:27;4.60;;;3.77;;
1649;SDS011;822;53.670;8.676;2022-10-30T04:24:54;4.60;;;4.20;;
1649;SDS011;822;53.670;8.676;2022-10-30T04:27:21;5.50;;;4.10;;
1649;SDS011;822;53.670;8.676;2022-10-30T04:29:48;4.43;;;4.03;;
1649;SDS011;822;53.670;8.676;2022-10-30T04:32:15;4.63;;;4.00;;
1649;SDS011;822;53.670;8.676;2022-10-30T04:34:41;3.60;;;3.30;;
1649;SDS011;822;53.670;8.676;2022-10-30T04:37:08;4.70;;;4.30;;
1649;SDS011;822;53.670;8.676;2022-10-30T04:39:36;5.10;;;3.70;;
1649;SDS011;822;53.670;8.676;2022-10-30T04:42:03;3.50;;;3.20;;
1649;SDS011;822;53.670;8.676;2022-10-30T04:44:30;4.00;;;3.60;;
1649;SDS011;822;53.670;8.676;2022-10-30T04:46:57;3.67;;;3.37;;
1649;SDS011;822;53.670;8.676;2022-10-30T04:49:24;8.97;;;4.23;;
1649;SDS011;822;53.670;8.676;2022-10-30T04:51:50;3.87;;;3.57;;
1649;SDS011;822;53.670;8.676;2022-10-30T04:54:17;3.70;;;3.40;;
1649;SDS011;822;53.670;8.676;2022-10-30T04:56:46;4.37;;;3.50;;
1649;SDS011;822;53.670;8.676;2022-10-30T04:59:13;4.17;;;3.87;;
1649;SDS011;822;53.670;8.676;2022-10-30T05:01:40;3.93;;;3.63;;
1649;SDS011;822;53.670;8.676;2022-10-30T05:04:06;4.27;;;3.97;;
1649;SDS011;822;53.670;8.676;2022-10-30T05:06:33;5.37;;;4.77;;
1649;SDS011;822;53.670;8.676;2022-10-30T05:09:00;4.70;;;3.67;;
1649;SDS011;822;53.670;8.676;2022-10-30T05:11:27;4.03;;;3.73;;
1649;SDS011;822;53.670;8.676;2022-10-30T05:13:55;4.30;;;3.90;;
1649;SDS011;822;53.670;8.676;2022-10-30T05:16:25;4.20;;;3.80;;
1649;SDS011;822;53.670;8.676;2022-10-30T05:18:52;4.57;;;3.40;;
1649;SDS011;822;53.670;8.676;2022-10-30T05:21:19;4.90;;;4.30;;
1649;SDS011;822;53.670;8.676;2022-10-30T05:23:46;4.87;;;4.47;;
1649;SDS011;822;53.670;8.676;2022-10-30T05:26:13;4.87;;;3.93;;
1649;SDS011;822;53.670;8.676;2022-10-30T05:28:39;11.73;;;5.10;;
1649;SDS011;822;53.670;8.676;2022-10-30T05:31:08;5.03;;;4.00;;
1649;SDS011;822;53.670;8.676;2022-10-30T05:33:35;5.67;;;3.37;;
1649;SDS011;822;53.670;8.676;2022-10-30T05:36:02;12.50;;;4.93;;
1649;SDS011;822;53.670;8.676;2022-10-30T05:38:29;5.63;;;4.33;;
1649;SDS011;822;53.670;8.676;2022-10-30T05:40:56;4.57;;;4.13;;
1649;SDS011;822;53.670;8.676;2022-10-30T05:43:23;4.80;;;4.37;;
1649;SDS011;822;53.670;8.676;2022-10-30T05:45:50;4.70;;;4.30;;
1649;SDS011;822;53.670;8.676;2022-10-30T05:48:18;5.77;;;4.70;;
1649;SDS011;822;53.670;8.676;2022-10-30T05:50:44;5.00;;;4.50;;
1649;SDS011;822;53.670;8.676;2022-10-30T05:53:11;3.60;;;3.37;;
1649;SDS011;822;53.670;8.676;2022-10-30T05:55:38;5.00;;;4.60;;
1649;SDS011;822;53.670;8.676;2022-10-30T05:58:05;4.80;;;4.40;;
1649;SDS011;822;53.670;8.676;2022-10-30T06:00:33;4.17;;;3.77;;
1649;SDS011;822;53.670;8.676;2022-10-30T06:03:01;5.50;;;4.20;;
1649;SDS011;822;53.670;8.676;2022-10-30T06:05:31;5.03;;;4.63;;
1649;SDS011;822;53.670;8.676;2022-10-30T06:07:59;4.10;;;3.80;;
1649;SDS011;822;53.670;8.676;2022-10-30T06:10:25;4.20;;;3.80;;
1649;SDS011;822;53.670;8.676;2022-10-30T06:12:53;3.90;;;3.50;;
1649;SDS011;822;53.670;8.676;2022-10-30T06:15:21;3.70;;;3.40;;
1649;SDS011;822;53.670;8.676;2022-10-30T06:17:48;4.80;;;4.33;;
1649;SDS011;822;53.670;8.676;2022-10-30T06:20:15;8.37;;;5.20;;
1649;SDS011;822;53.670;8.676;2022-10-30T06:22:53;5.50;;;4.03;;
1649;SDS011;822;53.670;8.676;2022-10-30T06:25:20;4.43;;;4.00;;
1649;SDS011;822;53.670;8.676;2022-10-30T06:27:47;5.07;;;4.57;;
1649;SDS011;822;53.670;8.676;2022-10-30T06:30:14;4.80;;;4.07;;
1649;SDS011;822;53.670;8.676;2022-10-30T06:32:41;3.97;;;3.67;;
1649;SDS011;822;53.670;8.676;2022-10-30T06:35:08;4.43;;;4.00;;
1649;SDS011;822;53.670;8.676;2022-10-30T06:37:35;4.53;;;4.07;;
1649;SDS011;822;53.670;8.676;2022-10-30T06:40:05;8.13;;;3.90;;
1649;SDS011;822;53.670;8.676;2022-10-30T06:42:42;4.83;;;4.07;;
1649;SDS011;822;53.670;8.676;2022-10-30T06:45:10;4.77;;;4.37;;
1649;SDS011;822;53.670;8.676;2022-10-30T06:47:37;4.27;;;3.87;;
1649;SDS011;822;53.670;8.676;2022-10-30T06:50:05;5.40;;;4.40;;
1649;SDS011;822;53.670;8.676;2022-10-30T06:52:33;4.57;;;4.10;;
1649;SDS011;822;53.670;8.676;2022-10-30T06:55:00;5.10;;;4.47;;
1649;SDS011;822;53.670;8.676;2022-10-30T06:57:28;5.30;;;4.30;;
1649;SDS011;822;53.670;8.676;2022-10-30T06:59:55;4.77;;;3.70;;
1649;SDS011;822;53.670;8.676;2022-10-30T07:02:22;4.73;;;4.30;;
1649;SDS011;822;53.670;8.676;2022-10-30T07:04:48;5.70;;;3.97;;
1649;SDS011;822;53.670;8.676;2022-10-30T07:07:15;4.43;;;4.03;;
1649;SDS011;822;53.670;8.676;2022-10-30T07:09:43;4.03;;;3.57;;
1649;SDS011;822;53.670;8.676;2022-10-30T07:12:10;3.90;;;3.60;;
1649;SDS011;822;53.670;8.676;2022-10-30T07:14:39;6.90;;;5.03;;
1649;SDS011;822;53.670;8.676;2022-10-30T07:17:05;5.27;;;4.73;;
1649;SDS011;822;53.670;8.676;2022-10-30T07:19:32;4.87;;;4.47;;
1649;SDS011;822;53.670;8.676;2022-10-30T07:21:59;4.40;;;3.93;;
1649;SDS011;822;53.670;8.676;2022-10-30T07:24:26;4.77;;;4.40;;
1649;SDS011;822;53.670;8.676;2022-10-30T07:26:53;4.30;;;3.90;;
1649;SDS011;822;53.670;8.676;2022-10-30T07:29:20;4.13;;;3.80;;
1649;SDS011;822;53.670;8.676;2022-10-30T07:31:48;5.20;;;4.70;;
1649;SDS011;822;53.670;8.676;2022-10-30T07:34:15;5.03;;;4.10;;
1649;SDS011;822;53.670;8.676;2022-10-30T07:36:42;5.43;;;4.73;;
1649;SDS011;822;53.670;8.676;2022-10-30T07:39:09;4.30;;;3.90;;
1649;SDS011;822;53.670;8.676;2022-10-30T07:41:35;5.00;;;4.33;;
1649;SDS011;822;53.670;8.676;2022-10-30T07:44:02;5.03;;;4.53;;
1649;SDS011;822;53.670;8.676;2022-10-30T07:46:29;5.67;;;4.50;;
1649;SDS011;822;53.670;8.676;2022-10-30T07:48:57;4.73;;;4.37;;
1649;SDS011;822;53.670;8.676;2022-10-30T07:51:24;4.67;;;3.57;;
1649;SDS011;822;53.670;8.676;2022-10-30T07:53:51;5.60;;;5.10;;
1649;SDS011;822;53.670;8.676;2022-10-30T07:56:18;4.67;;;4.20;;
1649;SDS011;822;53.670;8.676;2022-10-30T07:58:45;4.60;;;4.20;;
1649;SDS011;822;53.670;8.676;2022-10-30T08:01:11;4.80;;;4.40;;
1649;SDS011;822;53.670;8.676;2022-10-30T08:03:38;4.70;;;4.23;;
1649;SDS011;822;53.670;8.676;2022-10-30T08:06:07;7.07;;;4.80;;
1649;SDS011;822;53.670;8.676;2022-10-30T08:08:33;4.37;;;3.97;;
1649;SDS011;822;53.670;8.676;2022-10-30T08:11:00;6.03;;;5.50;;
1649;SDS011;822;53.670;8.676;2022-10-30T08:13:27;5.50;;;4.77;;
1649;SDS011;822;53.670;8.676;2022-10-30T08:15:54;5.67;;;4.40;;
1649;SDS011;822;53.670;8.676;2022-10-30T08:18:21;4.07;;;3.77;;
1649;SDS011;822;53.670;8.676;2022-10-30T08:20:48;4.93;;;4.50;;
1649;SDS011;822;53.670;8.676;2022-10-30T08:23:16;6.47;;;4.13;;
1649;SDS011;822;53.670;8.676;2022-10-30T08:25:45;5.73;;;5.20;;
1649;SDS011;822;53.670;8.676;2022-10-30T08:28:12;5.13;;;4.60;;
1649;SDS011;822;53.670;8.676;2022-10-30T08:30:39;4.83;;;4.43;;
1649;SDS011;822;53.670;8.676;2022-10-30T08:33:07;4.17;;;3.87;;
1649;SDS011;822;53.670;8.676;2022-10-30T08:35:37;5.20;;;4.50;;
1649;SDS011;822;53.670;8.676;2022-10-30T08:38:04;4.37;;;3.97;;
1649;SDS011;822;53.670;8.676;2022-10-30T08:40:32;4.30;;;3.90;;
1649;SDS011;822;53.670;8.676;2022-10-30T08:42:59;8.33;;;4.60;;
1649;SDS011;822;53.670;8.676;2022-10-30T08:45:26;4.97;;;4.20;;
1649;SDS011;822;53.670;8.676;2022-10-30T08:48:00;4.67;;;3.97;;
1649;SDS011;822;53.670;8.676;2022-10-30T08:50:28;5.30;;;4.03;;
1649;SDS011;822;53.670;8.676;2022-10-30T08:52:55;4.87;;;4.23;;
1649;SDS011;822;53.670;8.676;2022-10-30T08:55:25;3.93;;;3.63;;
1649;SDS011;822;53.670;8.676;2022-10-30T08:57:54;4.03;;;3.63;;
1649;SDS011;822;53.670;8.676;2022-10-30T09:00:20;4.70;;;4.30;;
1649;SDS011;822;53.670;8.676;2022-10-30T09:02:47;5.13;;;4.40;;
1649;SDS011;822;53.670;8.676;2022-10-30T09:05:14;5.23;;;4.83;;
1649;SDS011;822;53.670;8.676;2022-10-30T09:07:41;4.30;;;4.00;;
1649;SDS011;822;53.670;8.676;2022-10-30T09:10:09;5.03;;;3.40;;
1649;SDS011;822;53.670;8.676;2022-10-30T09:12:36;3.57;;;3.30;;
1649;SDS011;822;53.670;8.676;2022-10-30T09:15:04;4.77;;;3.30;;
1649;SDS011;822;53.670;8.676;2022-10-30T09:17:34;4.57;;;4.17;;
1649;SDS011;822;53.670;8.676;2022-10-30T09:20:01;4.13;;;3.80;;
1649;SDS011;822;53.670;8.676;2022-10-30T09:22:30;3.80;;;3.50;;
1649;SDS011;822;53.670;8.676;2022-10-30T09:24:57;3.33;;;3.13;;
1649;SDS011;822;53.670;8.676;2022-10-30T09:27:24;5.10;;;3.37;;
1649;SDS011;822;53.670;8.676;2022-10-30T09:29:51;3.00;;;2.80;;
1649;SDS011;822;53.670;8.676;2022-10-30T09:32:20;4.10;;;3.70;;
1649;SDS011;822;53.670;8.676;2022-10-30T09:34:47;2.90;;;2.70;;
1649;SDS011;822;53.670;8.676;2022-10-30T09:37:14;2.50;;;2.30;;
1649;SDS011;822;53.670;8.676;2022-10-30T09:39:41;3.47;;;2.97;;
1649;SDS011;822;53.670;8.676;2022-10-30T09:42:18;2.90;;;2.40;;
1649;SDS011;822;53.670;8.676;2022-10-30T09:45:01;3.63;;;3.03;;
1649;SDS011;822;53.670;8.676;2022-10-30T09:47:36;3.17;;;2.97;;
1649;SDS011;822;53.670;8.676;2022-10-30T09:50:20;2.57;;;2.37;;
1649;SDS011;822;53.670;8.676;2022-10-30T09:52:53;2.83;;;2.60;;
1649;SDS011;822;53.670;8.676;2022-10-30T09:55:28;2.50;;;2.30;;
1649;SDS011;822;53.670;8.676;2022-10-30T09:58:01;3.10;;;2.60;;
1649;SDS011;822;53.670;8.676;2022-10-30T10:00:33;3.17;;;2.87;;
1649;SDS011;822;53.670;8.676;2022-10-30T10:03:07;3.37;;;3.07;;
1649;SDS011;822;53.670;8.676;2022-10-30T10:05:43;3.27;;;2.37;;
1649;SDS011;822;53.670;8.676;2022-10-30T10:08:15;3.10;;;2.90;;
1649;SDS011;822;53.670;8.676;2022-10-30T10:10:45;4.00;;;2.20;;
1649;SDS011;822;53.670;8.676;2022-10-30T10:13:21;2.40;;;2.20;;
1649;SDS011;822;53.670;8.676;2022-10-30T10:15:53;3.50;;;2.80;;
1649;SDS011;822;53.670;8.676;2022-10-30T10:18:24;3.37;;;3.07;;
1649;SDS011;822;53.670;8.676;2022-10-30T10:20:55;2.50;;;2.30;;
1649;SDS011;822;53.670;8.676;2022-10-30T10:23:25;2.83;;;2.63;;
1649;SDS011;822;53.670;8.676;2022-10-30T10:25:57;5.23;;;2.90;;
1649;SDS011;822;53.670;8.676;2022-10-30T10:28:39;2.70;;;2.50;;
1649;SDS011;822;53.670;8.676;2022-10-30T10:31:19;2.60;;;2.40;;
1649;SDS011;822;53.670;8.676;2022-10-30T10:33:55;2.90;;;2.47;;
1649;SDS011;822;53.670;8.676;2022-10-30T10:36:29;2.80;;;2.60;;
1649;SDS011;822;53.670;8.676;2022-10-30T10:39:06;3.10;;;2.57;;
1649;SDS011;822;53.670;8.676;2022-10-30T10:41:49;5.63;;;3.07;;
1649;SDS011;822;53.670;8.676;2022-10-30T10:44:25;2.90;;;2.70;;
1649;SDS011;822;53.670;8.676;2022-10-30T10:47:01;3.07;;;2.43;;
1649;SDS011;822;53.670;8.676;2022-10-30T10:49:39;3.30;;;3.03;;
1649;SDS011;822;53.670;8.676;2022-10-30T10:52:10;2.47;;;2.27;;
1649;SDS011;822;53.670;8.676;2022-10-30T10:54:43;2.13;;;2.00;;
1649;SDS011;822;53.670;8.676;2022-10-30T10:57:14;2.70;;;2.30;;
1649;SDS011;822;53.670;8.676;2022-10-30T10:59:43;1.80;;;1.70;;
1649;SDS011;822;53.670;8.676;2022-10-30T11:02:19;2.17;;;1.97;;
1649;SDS011;822;53.670;8.676;2022-10-30T11:04:58;2.93;;;2.73;;
1649;SDS011;822;53.670;8.676;2022-10-30T11:07:28;2.60;;;2.40;;
1649;SDS011;822;53.670;8.676;2022-10-30T11:09:57;2.97;;;2.77;;
1649;SDS011;822;53.670;8.676;2022-10-30T11:12:24;2.40;;;2.20;;
1649;SDS011;822;53.670;8.676;2022-10-30T11:14:53;3.33;;;3.10;;
1649;SDS011;822;53.670;8.676;2022-10-30T11:17:23;3.73;;;2.27;;
1649;SDS011;822;53.670;8.676;2022-10-30T11:19:53;2.27;;;2.17;;
1649;SDS011;822;53.670;8.676;2022-10-30T11:22:27;2.33;;;2.20;;
1649;SDS011;822;53.670;8.676;2022-10-30T11:25:16;2.40;;;2.20;;
1649;SDS011;822;53.670;8.676;2022-10-30T11:27:44;2.80;;;2.27;;
1649;SDS011;822;53.670;8.676;2022-10-30T11:30:15;2.63;;;2.43;;
1649;SDS011;822;53.670;8.676;2022-10-30T11:32:43;1.57;;;1.47;;
1649;SDS011;822;53.670;8.676;2022-10-30T11:35:12;1.80;;;1.70;;
1649;SDS011;822;53.670;8.676;2022-10-30T11:37:41;1.83;;;1.73;;
1649;SDS011;822;53.670;8.676;2022-10-30T11:40:14;2.30;;;2.10;;
1649;SDS011;822;53.670;8.676;2022-10-30T11:42:44;2.57;;;1.80;;
1649;SDS011;822;53.670;8.676;2022-10-30T11:45:13;2.10;;;1.90;;
1649;SDS011;822;53.670;8.676;2022-10-30T11:47:41;2.00;;;1.90;;
1649;SDS011;822;53.670;8.676;2022-10-30T11:50:15;1.50;;;1.40;;
1649;SDS011;822;53.670;8.676;2022-10-30T11:52:44;2.60;;;2.03;;
1649;SDS011;822;53.670;8.676;2022-10-30T11:55:13;1.70;;;1.50;;
1649;SDS011;822;53.670;8.676;2022-10-30T11:57:42;2.57;;;1.50;;
1649;SDS011;822;53.670;8.676;2022-10-30T12:00:16;1.70;;;1.60;;
1649;SDS011;822;53.670;8.676;2022-10-30T12:02:45;3.93;;;2.13;;
1649;SDS011;822;53.670;8.676;2022-10-30T12:05:29;2.30;;;1.90;;
1649;SDS011;822;53.670;8.676;2022-10-30T12:08:15;2.73;;;2.10;;
1649;SDS011;822;53.670;8.676;2022-10-30T12:10:44;1.83;;;1.67;;
1649;SDS011;822;53.670;8.676;2022-10-30T12:13:12;1.23;;;1.13;;
1649;SDS011;822;53.670;8.676;2022-10-30T12:15:40;2.40;;;1.27;;
1649;SDS011;822;53.670;8.676;2022-10-30T12:18:07;2.60;;;2.40;;
1649;SDS011;822;53.670;8.676;2022-10-30T12:20:44;1.63;;;1.53;;
1649;SDS011;822;53.670;8.676;2022-10-30T12:23:15;2.40;;;2.20;;
1649;SDS011;822;53.670;8.676;2022-10-30T12:25:45;1.67;;;1.57;;
1649;SDS011;822;53.670;8.676;2022-10-30T12:28:12;1.77;;;1.67;;
1649;SDS011;822;53.670;8.676;2022-10-30T12:30:42;1.40;;;1.30;;
1649;SDS011;822;53.670;8.676;2022-10-30T12:33:14;1.50;;;1.40;;
1649;SDS011;822;53.670;8.676;2022-10-30T12:35:45;1.67;;;1.57;;
1649;SDS011;822;53.670;8.676;2022-10-30T12:38:16;2.20;;;1.70;;
1649;SDS011;822;53.670;8.676;2022-10-30T12:40:53;2.00;;;1.90;;
1649;SDS011;822;53.670;8.676;2022-10-30T12:43:25;2.03;;;1.87;;
1649;SDS011;822;53.670;8.676;2022-10-30T12:45:53;1.70;;;1.60;;
1649;SDS011;822;53.670;8.676;2022-10-30T12:48:25;1.30;;;1.20;;
1649;SDS011;822;53.670;8.676;2022-10-30T12:51:04;1.50;;;1.40;;
1649;SDS011;822;53.670;8.676;2022-10-30T12:53:37;1.27;;;1.17;;
1649;SDS011;822;53.670;8.676;2022-10-30T12:56:08;1.63;;;1.53;;
1649;SDS011;822;53.670;8.676;2022-10-30T12:58:38;1.60;;;1.50;;
1649;SDS011;822;53.670;8.676;2022-10-30T13:01:10;3.57;;;2.40;;
1649;SDS011;822;53.670;8.676;2022-10-30T13:03:42;1.90;;;1.80;;
1649;SDS011;822;53.670;8.676;2022-10-30T13:06:16;1.40;;;1.30;;
1649;SDS011;822;53.670;8.676;2022-10-30T13:08:46;2.37;;;1.60;;
1649;SDS011;822;53.670;8.676;2022-10-30T13:11:20;1.57;;;1.47;;
1649;SDS011;822;53.670;8.676;2022-10-30T13:13:52;1.60;;;1.50;;
1649;SDS011;822;53.670;8.676;2022-10-30T13:16:24;2.20;;;2.00;;
1649;SDS011;822;53.670;8.676;2022-10-30T13:18:54;1.40;;;1.30;;
1649;SDS011;822;53.670;8.676;2022-10-30T13:21:24;1.80;;;1.70;;
1649;SDS011;822;53.670;8.676;2022-10-30T13:23:54;1.73;;;1.63;;
1649;SDS011;822;53.670;8.676;2022-10-30T13:26:27;2.30;;;2.20;;
1649;SDS011;822;53.670;8.676;2022-10-30T13:28:59;2.00;;;1.80;;
1649;SDS011;822;53.670;8.676;2022-10-30T13:31:32;4.13;;;1.60;;
1649;SDS011;822;53.670;8.676;2022-10-30T13:36:54;1.63;;;1.53;;
1649;SDS011;822;53.670;8.676;2022-10-30T13:39:27;1.93;;;1.83;;
1649;SDS011;822;53.670;8.676;2022-10-30T13:41:59;2.97;;;2.17;;
1649;SDS011;822;53.670;8.676;2022-10-30T13:44:36;1.70;;;1.60;;
1649;SDS011;822;53.670;8.676;2022-10-30T13:47:11;5.17;;;1.87;;
1649;SDS011;822;53.670;8.676;2022-10-30T13:49:47;2.20;;;2.03;;
1649;SDS011;822;53.670;8.676;2022-10-30T13:52:21;2.50;;;2.20;;
1649;SDS011;822;53.670;8.676;2022-10-30T13:54:51;2.13;;;1.77;;
1649;SDS011;822;53.670;8.676;2022-10-30T13:57:22;2.13;;;1.93;;
1649;SDS011;822;53.670;8.676;2022-10-30T13:59:58;2.03;;;1.93;;
1649;SDS011;822;53.670;8.676;2022-10-30T14:02:40;1.83;;;1.73;;
1649;SDS011;822;53.670;8.676;2022-10-30T14:05:16;3.30;;;2.53;;
1649;SDS011;822;53.670;8.676;2022-10-30T14:07:53;1.87;;;1.77;;
1649;SDS011;822;53.670;8.676;2022-10-30T14:10:39;1.87;;;1.73;;
1649;SDS011;822;53.670;8.676;2022-10-30T14:13:14;2.33;;;2.13;;
1649;SDS011;822;53.670;8.676;2022-10-30T14:15:43;2.60;;;2.40;;
1649;SDS011;822;53.670;8.676;2022-10-30T14:18:25;2.20;;;1.97;;
1649;SDS011;822;53.670;8.676;2022-10-30T14:20:53;2.20;;;2.10;;
1649;SDS011;822;53.670;8.676;2022-10-30T14:23:23;2.10;;;1.87;;
1649;SDS011;822;53.670;8.676;2022-10-30T14:28:38;1.67;;;1.57;;
1649;SDS011;822;53.670;8.676;2022-10-30T14:31:06;3.00;;;1.80;;
1649;SDS011;822;53.670;8.676;2022-10-30T14:33:44;2.27;;;1.70;;
1649;SDS011;822;53.670;8.676;2022-10-30T14:36:13;1.97;;;1.83;;
1649;SDS011;822;53.670;8.676;2022-10-30T14:38:52;2.50;;;2.30;;
1649;SDS011;822;53.670;8.676;2022-10-30T14:41:34;1.60;;;1.50;;
1649;SDS011;822;53.670;8.676;2022-10-30T14:44:12;2.13;;;1.77;;
1649;SDS011;822;53.670;8.676;2022-10-30T14:46:44;1.80;;;1.70;;
1649;SDS011;822;53.670;8.676;2022-10-30T14:49:26;2.13;;;1.70;;
1649;SDS011;822;53.670;8.676;2022-10-30T14:52:03;1.80;;;1.70;;
1649;SDS011;822;53.670;8.676;2022-10-30T14:54:40;1.50;;;1.40;;
1649;SDS011;822;53.670;8.676;2022-10-30T14:57:18;1.67;;;1.57;;
1649;SDS011;822;53.670;8.676;2022-10-30T14:59:54;3.87;;;1.87;;
1649;SDS011;822;53.670;8.676;2022-10-30T15:02:56;2.67;;;1.87;;
1649;SDS011;822;53.670;8.676;2022-10-30T15:05:36;2.03;;;1.83;;
1649;SDS011;822;53.670;8.676;2022-10-30T15:08:11;1.93;;;1.80;;
1649;SDS011;822;53.670;8.676;2022-10-30T15:10:50;1.70;;;1.60;;
1649;SDS011;822;53.670;8.676;2022-10-30T15:13:27;1.67;;;1.57;;
1649;SDS011;822;53.670;8.676;2022-10-30T15:15:58;5.13;;;2.47;;
1649;SDS011;822;53.670;8.676;2022-10-30T15:18:26;2.33;;;2.13;;
1649;SDS011;822;53.670;8.676;2022-10-30T15:20:53;1.73;;;1.60;;
1649;SDS011;822;53.670;8.676;2022-10-30T15:23:23;1.80;;;1.70;;
1649;SDS011;822;53.670;8.676;2022-10-30T15:25:54;2.47;;;2.03;;
1649;SDS011;822;53.670;8.676;2022-10-30T15:28:24;1.60;;;1.50;;
1649;SDS011;822;53.670;8.676;2022-10-30T15:31:00;2.20;;;2.03;;
1649;SDS011;822;53.670;8.676;2022-10-30T15:33:29;1.83;;;1.73;;
1649;SDS011;822;53.670;8.676;2022-10-30T15:35:57;2.10;;;1.90;;
1649;SDS011;822;53.670;8.676;2022-10-30T15:38:24;2.27;;;2.07;;
1649;SDS011;822;53.670;8.676;2022-10-30T15:40:54;3.20;;;1.83;;
1649;SDS011;822;53.670;8.676;2022-10-30T15:43:22;1.57;;;1.47;;
1649;SDS011;822;53.670;8.676;2022-10-30T15:45:53;2.00;;;1.80;;
1649;SDS011;822;53.670;8.676;2022-10-30T15:48:22;2.53;;;2.43;;
1649;SDS011;822;53.670;8.676;2022-10-30T15:50:57;2.00;;;1.90;;
1649;SDS011;822;53.670;8.676;2022-10-30T15:53:27;4.00;;;2.63;;
1649;SDS011;822;53.670;8.676;2022-10-30T15:55:59;3.07;;;2.17;;
1649;SDS011;822;53.670;8.676;2022-10-30T15:58:26;3.20;;;2.10;;